Skidegate, Canada
Current Conditions -  °F | °C
As of 4:00 AM on Sunday 21 Dec 2014 (Local Time) from CYZP Reporting Station
Broken Clouds Broken Clouds  
Wind Chill: 43°   Ceiling: 6000
Heat Index: 43°   Visibility: 9mi
Dew Point: 41°   Wind: 3mph
Humidity: 93%   Direction: 150°SSE
Pressure: 29.37"   Gusts: NA
Location:  53.27°N, 131.99°W
Report Text: CYZP 211200Z AUTO 15003KT 9SM SCT037 SCT045 BKN060 06/05 A2937 RMK PRESRR SLP944
Loading
Personal Weather Stations






























Interactive Weather Map New forecast layout! Learn more

10-Day Weather Forecast

Advertisements
Track Severe Weather on mobile